createdAt,value
2022-10-05T00:01:38.250Z,2.10
2022-10-05T00:06:39.941Z,3.00
2022-10-05T00:11:41.667Z,2.80
2022-10-05T00:16:43.765Z,2.57
2022-10-05T00:21:45.753Z,2.93
2022-10-05T00:26:48.953Z,2.63
2022-10-05T00:31:52.595Z,2.87
2022-10-05T00:36:54.336Z,2.50
2022-10-05T00:42:16.133Z,2.80
2022-10-05T00:48:07.433Z,2.90
2022-10-05T00:53:31.162Z,2.33
2022-10-05T00:58:52.182Z,2.40
2022-10-05T01:04:35.218Z,2.23
2022-10-05T01:10:04.420Z,3.23
2022-10-05T01:15:23.982Z,3.00
2022-10-05T01:21:09.206Z,2.73
2022-10-05T01:26:54.210Z,2.70
2022-10-05T01:32:31.474Z,2.60
2022-10-05T01:38:03.668Z,2.53
2022-10-05T01:43:17.444Z,2.20
2022-10-05T01:48:56.465Z,3.17
2022-10-05T01:54:58.528Z,2.80
2022-10-05T02:00:19.244Z,2.97
2022-10-05T02:05:39.233Z,2.37
2022-10-05T02:10:55.715Z,2.73
2022-10-05T02:16:10.171Z,2.83
2022-10-05T02:21:12.811Z,2.70
2022-10-05T02:26:17.492Z,2.40
2022-10-05T02:31:36.060Z,2.93
2022-10-05T02:36:38.237Z,3.17
2022-10-05T02:42:22.083Z,2.80
2022-10-05T02:47:33.388Z,2.67
2022-10-05T02:53:16.644Z,2.70
2022-10-05T02:58:30.329Z,3.20
2022-10-05T03:03:50.428Z,2.70
2022-10-05T03:09:04.386Z,2.70
2022-10-05T03:14:44.162Z,2.90
2022-10-05T03:20:31.854Z,2.97
2022-10-05T03:25:51.689Z,2.33
2022-10-05T03:31:28.512Z,2.60
2022-10-05T03:36:49.848Z,2.33
2022-10-05T03:42:29.402Z,2.87
2022-10-05T03:48:01.474Z,2.60
2022-10-05T03:53:16.625Z,2.30
2022-10-05T03:59:02.064Z,2.60
2022-10-05T04:04:11.261Z,2.80
2022-10-05T04:09:51.016Z,3.00
2022-10-05T04:15:34.592Z,2.63
2022-10-05T04:20:52.081Z,2.90
2022-10-05T04:26:06.454Z,2.50
2022-10-05T04:31:22.907Z,2.60
2022-10-05T04:36:35.677Z,2.50
2022-10-05T04:41:55.822Z,2.53
2022-10-05T04:47:37.221Z,2.53
2022-10-05T04:53:13.552Z,2.90
2022-10-05T04:59:03.297Z,3.00
2022-10-05T05:04:51.676Z,2.40
2022-10-05T05:10:32.621Z,2.30
2022-10-05T05:16:24.051Z,2.60
2022-10-05T05:22:06.767Z,2.80
2022-10-05T05:27:57.431Z,2.40
2022-10-05T05:33:43.052Z,3.00
2022-10-05T05:39:27.834Z,3.10
2022-10-05T05:44:48.150Z,3.10
2022-10-05T05:50:34.621Z,3.40
2022-10-05T05:55:46.358Z,3.20
2022-10-05T06:01:32.286Z,3.50
2022-10-05T06:06:46.982Z,2.63
2022-10-05T06:11:57.054Z,3.90
2022-10-05T06:17:11.249Z,2.90
2022-10-05T06:22:37.066Z,4.00
2022-10-05T06:28:13.889Z,2.00
2022-10-05T06:33:31.357Z,3.40
2022-10-05T06:39:01.963Z,3.10
2022-10-05T06:44:23.241Z,2.80
2022-10-05T06:50:02.726Z,2.90
2022-10-05T06:56:02.999Z,3.13
2022-10-05T07:02:04.805Z,3.10
2022-10-05T07:08:05.038Z,2.83
2022-10-05T07:13:51.406Z,2.30
2022-10-05T07:19:26.795Z,3.10
2022-10-05T07:25:17.280Z,2.73
2022-10-05T07:30:19.843Z,2.60
2022-10-05T07:36:08.371Z,2.80
2022-10-05T07:41:51.092Z,2.60
2022-10-05T07:47:37.620Z,2.40
2022-10-05T07:52:49.246Z,2.80
2022-10-05T07:58:09.733Z,2.63
2022-10-05T08:03:47.138Z,2.40
2022-10-05T08:09:19.729Z,3.00
2022-10-05T08:15:09.969Z,3.00
2022-10-05T08:20:29.578Z,3.20
2022-10-05T08:26:02.583Z,2.27
2022-10-05T08:31:37.224Z,2.37
2022-10-05T08:36:38.823Z,2.23
2022-10-05T08:42:43.532Z,2.43
2022-10-05T08:49:34.908Z,2.40
2022-10-05T08:55:37.335Z,2.77
2022-10-05T09:01:09.808Z,2.50
2022-10-05T09:06:51.067Z,2.30
2022-10-05T09:13:02.022Z,1.97
2022-10-05T09:19:06.240Z,2.40
2022-10-05T09:24:49.104Z,2.53
2022-10-05T09:30:28.739Z,1.77
2022-10-05T09:36:28.016Z,2.50
2022-10-05T09:42:13.198Z,2.20
2022-10-05T09:47:56.448Z,2.63
2022-10-05T09:53:09.872Z,2.13
2022-10-05T09:58:48.583Z,2.80
2022-10-05T10:04:43.724Z,2.03
2022-10-05T10:10:15.417Z,2.83
2022-10-05T10:15:35.239Z,2.30
2022-10-05T10:21:45.542Z,2.17
2022-10-05T10:27:28.910Z,1.60
2022-10-05T10:33:11.854Z,2.20
2022-10-05T10:39:04.407Z,2.83
2022-10-05T10:44:56.237Z,2.87
2022-10-05T10:51:04.211Z,2.30
2022-10-05T10:56:52.935Z,2.60
2022-10-05T11:02:47.991Z,3.10
2022-10-05T11:08:42.660Z,2.30
2022-10-05T11:14:33.687Z,2.60
2022-10-05T11:20:04.722Z,2.47
2022-10-05T11:25:58.938Z,2.60
2022-10-05T11:31:59.009Z,2.40
2022-10-05T11:37:19.220Z,3.10
2022-10-05T11:43:07.859Z,3.03
2022-10-05T11:48:54.600Z,2.93
2022-10-05T11:55:11.757Z,2.37
2022-10-05T12:00:56.816Z,2.77
2022-10-05T12:06:47.374Z,3.87
2022-10-05T12:11:58.821Z,3.23
2022-10-05T12:17:47.554Z,3.03
2022-10-05T12:23:37.548Z,2.90
2022-10-05T12:29:15.798Z,2.80
2022-10-05T12:34:49.509Z,2.63
2022-10-05T12:40:43.813Z,2.33
2022-10-05T12:46:25.317Z,2.30
2022-10-05T12:51:46.697Z,2.00
2022-10-05T12:57:31.465Z,2.43
2022-10-05T13:02:48.793Z,2.03
2022-10-05T13:08:08.167Z,2.27
2022-10-05T13:13:46.532Z,2.63
2022-10-05T13:19:47.514Z,2.00
2022-10-05T13:25:14.934Z,2.47
2022-10-05T13:30:21.601Z,2.20
2022-10-05T13:35:56.960Z,1.23
2022-10-05T13:41:21.579Z,2.10
2022-10-05T13:47:04.353Z,1.63
2022-10-05T13:52:30.707Z,2.03
2022-10-05T13:58:05.961Z,2.00
2022-10-05T14:03:36.985Z,2.07
2022-10-05T14:09:25.443Z,1.90
2022-10-05T14:14:31.529Z,2.30
2022-10-05T14:19:44.706Z,2.30
2022-10-05T14:25:05.171Z,2.13
2022-10-05T14:30:12.457Z,3.20
2022-10-05T14:35:22.058Z,1.80
2022-10-05T14:40:29.018Z,2.13
2022-10-05T14:45:31.025Z,2.70
2022-10-05T14:50:32.813Z,2.10
2022-10-05T14:56:42.644Z,2.30
2022-10-05T15:02:16.994Z,2.70
2022-10-05T15:07:39.667Z,1.83
2022-10-05T15:12:48.223Z,1.97
2022-10-05T15:18:00.265Z,2.70
2022-10-05T15:23:27.523Z,2.67
2022-10-05T15:28:54.330Z,1.90
2022-10-05T15:34:15.948Z,2.60
2022-10-05T15:39:40.357Z,2.23
2022-10-05T15:45:25.328Z,1.97
2022-10-05T15:51:21.521Z,2.10
2022-10-05T15:56:38.568Z,2.00
2022-10-05T16:02:01.321Z,2.90
2022-10-05T16:07:26.050Z,1.77
2022-10-05T16:13:19.651Z,2.13
2022-10-05T16:19:04.029Z,1.97
2022-10-05T16:24:37.173Z,3.23
2022-10-05T16:30:09.463Z,2.60
2022-10-05T16:36:02.917Z,2.00
2022-10-05T16:41:27.969Z,2.33
2022-10-05T16:47:16.532Z,1.97
2022-10-05T16:52:23.474Z,2.43
2022-10-05T16:57:43.598Z,2.43
2022-10-05T17:03:39.953Z,3.23
2022-10-05T17:09:12.245Z,2.90
2022-10-05T17:15:12.837Z,3.27
2022-10-05T17:21:11.602Z,2.40
2022-10-05T17:26:52.704Z,2.47
2022-10-05T17:32:06.285Z,3.00
2022-10-05T17:37:41.481Z,4.00
2022-10-05T17:42:47.095Z,3.50
2022-10-05T17:48:03.723Z,7.90
2022-10-05T17:53:54.509Z,4.83
2022-10-05T17:59:02.561Z,4.60
2022-10-05T18:04:13.160Z,4.67
2022-10-05T18:09:20.246Z,5.30
2022-10-05T18:14:24.825Z,4.10
2022-10-05T18:19:32.177Z,3.27
2022-10-05T18:25:05.714Z,4.50
2022-10-05T18:30:25.291Z,3.60
2022-10-05T18:36:03.818Z,3.90
2022-10-05T18:41:46.422Z,4.10
2022-10-05T18:47:22.676Z,4.27
2022-10-05T18:52:56.667Z,4.40
2022-10-05T18:58:22.765Z,4.30
2022-10-05T19:03:51.803Z,4.07
2022-10-05T19:09:47.038Z,3.60
2022-10-05T19:15:30.004Z,4.10
2022-10-05T19:21:08.001Z,3.90
2022-10-05T19:26:56.561Z,3.90
2022-10-05T19:33:13.010Z,3.60
2022-10-05T19:38:55.697Z,3.20
2022-10-05T19:44:56.878Z,3.43
2022-10-05T19:50:40.357Z,3.90
2022-10-05T19:55:46.979Z,3.50
2022-10-05T20:00:59.785Z,3.20
2022-10-05T20:06:10.342Z,3.47
2022-10-05T20:11:27.005Z,3.50
2022-10-05T20:16:51.031Z,3.77
2022-10-05T20:21:59.697Z,3.50
2022-10-05T20:27:16.503Z,3.40
2022-10-05T20:32:18.313Z,3.30
2022-10-05T20:37:20.083Z,3.77
2022-10-05T20:42:23.809Z,3.00
2022-10-05T20:47:26.553Z,2.77
2022-10-05T20:52:28.656Z,2.80
2022-10-05T20:57:31.362Z,3.03
2022-10-05T21:02:33.209Z,2.87
2022-10-05T21:07:35.183Z,3.23
2022-10-05T21:12:37.303Z,2.97
2022-10-05T21:17:39.043Z,2.80
2022-10-05T21:22:41.083Z,2.77
2022-10-05T21:27:42.703Z,2.20
2022-10-05T21:32:44.992Z,2.90
2022-10-05T21:37:46.751Z,3.07
2022-10-05T21:42:48.389Z,2.80
2022-10-05T21:47:50.513Z,2.60
2022-10-05T21:52:53.518Z,3.37
2022-10-05T21:57:58.076Z,2.27
2022-10-05T22:02:59.756Z,2.13
2022-10-05T22:08:01.427Z,2.90
2022-10-05T22:13:04.486Z,2.53
2022-10-05T22:18:06.220Z,2.90
2022-10-05T22:23:07.878Z,1.80
2022-10-05T22:28:14.793Z,2.10
2022-10-05T22:33:16.493Z,2.23
2022-10-05T22:38:18.133Z,2.33
2022-10-05T22:43:19.836Z,2.57
2022-10-05T22:48:22.020Z,2.20
2022-10-05T22:53:24.674Z,2.17
2022-10-05T22:58:26.700Z,2.50
2022-10-05T23:03:28.526Z,3.13
2022-10-05T23:08:33.180Z,2.10
2022-10-05T23:13:34.978Z,2.73
2022-10-05T23:18:37.520Z,3.40
2022-10-05T23:23:43.766Z,2.60
2022-10-05T23:28:49.149Z,2.70
2022-10-05T23:33:53.188Z,2.17
2022-10-05T23:38:54.908Z,2.80
2022-10-05T23:43:56.868Z,3.13
2022-10-05T23:48:58.554Z,2.57
2022-10-05T23:54:00.271Z,2.50
2022-10-05T23:59:01.964Z,2.50
